Time;durP1;ratioP1;P1;durP2;ratioP2;P2;SDS_P1;SDS_P2;PMS_P1;PMS_P2;Temp;Humidity;BMP_temperature;BMP_pressure;BME280_temperature;BME280_humidity;BME280_pressure;Samples;Min_cycle;Max_cycle;Signal;HPM_P1;HPM_P2
2023/05/08 00:00:37;;;;;;;;;;;15.40;96.40;;;;;;5052035;28;19969;-68
2023/05/08 00:03:03;;;;;;;;;;;15.40;96.50;;;;;;5051417;27;19912;-68
2023/05/08 00:05:29;;;;;;;;;;;15.30;96.40;;;;;;5033746;28;19959;-68
2023/05/08 00:08:00;;;;;;;;;;;15.30;96.40;;;;;;5051493;28;19912;-68
2023/05/08 00:10:28;;;;;;;;;;;15.30;96.50;;;;;;5033843;28;20016;-68
2023/05/08 00:12:54;;;;;;;;;;;15.30;96.50;;;;;;5051065;28;19913;-68
2023/05/08 00:15:20;;;;;;;;;;;15.30;96.50;;;;;;5051936;28;19966;-68
2023/05/08 00:17:45;;;;;;;;;;;15.30;96.40;;;;;;5050664;28;19912;-68
2023/05/08 00:20:11;;;;;;;;;;;15.20;96.50;;;;;;5051680;28;19916;-68
2023/05/08 00:22:37;;;;;;;;;;;15.20;96.50;;;;;;5032761;28;20699;-68
2023/05/08 00:25:04;;;;;;;;;;;15.20;96.50;;;;;;5051453;28;19909;-68
2023/05/08 00:27:30;;;;;;;;;;;15.20;96.60;;;;;;5043192;27;20352;-67
2023/05/08 00:29:56;;;;;;;;;;;15.20;96.50;;;;;;5051226;28;19944;-68
2023/05/08 00:32:21;;;;;;;;;;;15.10;96.70;;;;;;5051419;27;20445;-68
2023/05/08 00:34:47;;;;;;;;;;;15.10;96.70;;;;;;5051334;27;19925;-68
2023/05/08 00:37:12;;;;;;;;;;;15.10;96.60;;;;;;5051458;27;19912;-68
2023/05/08 00:39:38;;;;;;;;;;;15.10;96.70;;;;;;5051336;27;20456;-68
2023/05/08 00:42:03;;;;;;;;;;;15.10;96.70;;;;;;5051059;27;19921;-68
2023/05/08 00:44:29;;;;;;;;;;;15.10;96.70;;;;;;5050965;28;19981;-68
2023/05/08 00:46:55;;;;;;;;;;;15.00;96.80;;;;;;5051273;28;19912;-68
2023/05/08 00:49:20;;;;;;;;;;;15.00;96.80;;;;;;5047891;28;20417;-68
2023/05/08 00:51:46;;;;;;;;;;;15.00;96.80;;;;;;5047662;28;19981;-68
2023/05/08 00:54:12;;;;;;;;;;;15.00;96.80;;;;;;5029795;28;19948;-68
2023/05/08 00:56:38;;;;;;;;;;;15.00;96.90;;;;;;5029973;28;20352;-68
2023/05/08 00:59:08;;;;;;;;;;;15.00;96.90;;;;;;5047441;28;19909;-68
2023/05/08 01:01:35;;;;;;;;;;;15.00;96.90;;;;;;5029843;28;20032;-68
2023/05/08 01:04:02;;;;;;;;;;;15.00;96.90;;;;;;5047359;28;20004;-68
2023/05/08 01:06:28;;;;;;;;;;;14.90;96.90;;;;;;5047713;28;19935;-68
2023/05/08 01:08:53;;;;;;;;;;;14.90;96.90;;;;;;5047531;28;20280;-68
2023/05/08 01:11:20;;;;;;;;;;;14.90;97.00;;;;;;5047776;28;19948;-68
2023/05/08 01:13:46;;;;;;;;;;;14.90;96.90;;;;;;5029457;28;19979;-68
2023/05/08 01:16:15;;;;;;;;;;;14.90;96.90;;;;;;5047510;28;20365;-68
2023/05/08 01:19:00;;;;;;;;;;;14.90;96.90;;;;;;5029708;28;19913;-68
2023/05/08 01:21:31;;;;;;;;;;;14.90;97.00;;;;;;5047429;28;20346;-68
2023/05/08 01:24:09;;;;;;;;;;;14.80;96.90;;;;;;5047263;28;20574;-68
2023/05/08 01:26:37;;;;;;;;;;;14.80;96.90;;;;;;5039152;28;19913;-68
2023/05/08 01:29:08;;;;;;;;;;;14.80;96.90;;;;;;5028967;28;19963;-68
2023/05/08 01:31:52;;;;;;;;;;;14.80;96.80;;;;;;5047318;28;19916;-68
2023/05/08 01:34:24;;;;;;;;;;;14.80;96.80;;;;;;5027190;28;19966;-68
2023/05/08 01:36:55;;;;;;;;;;;14.80;96.80;;;;;;5009794;28;19909;-68
2023/05/08 01:39:21;;;;;;;;;;;14.80;96.80;;;;;;5027139;28;19914;-68
2023/05/08 01:41:55;;;;;;;;;;;14.70;96.70;;;;;;5039619;28;19913;-68
2023/05/08 01:44:23;;;;;;;;;;;14.70;96.70;;;;;;5046879;28;19913;-68
2023/05/08 01:46:49;;;;;;;;;;;14.70;96.80;;;;;;5047091;28;19913;-68
2023/05/08 01:49:17;;;;;;;;;;;14.80;96.70;;;;;;5046834;28;19913;-68
2023/05/08 01:51:48;;;;;;;;;;;14.80;96.70;;;;;;5028852;28;19913;-68
2023/05/08 01:54:21;;;;;;;;;;;14.70;96.60;;;;;;5046826;28;19985;-68
2023/05/08 01:56:47;;;;;;;;;;;14.70;96.60;;;;;;5046885;28;19959;-68
2023/05/08 01:59:14;;;;;;;;;;;14.70;97.00;;;;;;5046523;28;19959;-68
2023/05/08 02:01:40;;;;;;;;;;;14.70;96.80;;;;;;5028919;28;19943;-68
2023/05/08 02:04:07;;;;;;;;;;;14.70;96.80;;;;;;5046415;28;20524;-68
2023/05/08 02:06:33;;;;;;;;;;;14.70;96.80;;;;;;5061056;28;20419;-68
2023/05/08 02:08:59;;;;;;;;;;;14.70;96.90;;;;;;5045687;28;19917;-68
2023/05/08 02:11:25;;;;;;;;;;;14.60;96.80;;;;;;5046608;28;20008;-68
2023/05/08 02:13:51;;;;;;;;;;;14.60;96.70;;;;;;5046029;28;20015;-68
2023/05/08 02:16:17;;;;;;;;;;;14.60;96.90;;;;;;5046733;28;20428;-68
2023/05/08 02:18:52;;;;;;;;;;;14.60;96.80;;;;;;5028358;28;19909;-68
2023/05/08 02:21:18;;;;;;;;;;;14.60;96.80;;;;;;5046089;28;19924;-68
2023/05/08 02:23:44;;;;;;;;;;;14.60;96.80;;;;;;5028543;28;19913;-68
2023/05/08 02:26:11;;;;;;;;;;;14.60;96.80;;;;;;5046146;28;19913;-68
2023/05/08 02:28:37;;;;;;;;;;;14.60;96.80;;;;;;5045622;28;19917;-68
2023/05/08 02:31:04;;;;;;;;;;;14.60;96.90;;;;;;5046343;28;19909;-68
2023/05/08 02:33:29;;;;;;;;;;;14.50;96.90;;;;;;5046144;28;19913;-68
2023/05/08 02:35:56;;;;;;;;;;;14.50;96.90;;;;;;5028630;28;19961;-68
2023/05/08 02:38:22;;;;;;;;;;;14.60;96.90;;;;;;5046270;28;19913;-68
2023/05/08 02:40:59;;;;;;;;;;;14.50;97.00;;;;;;5046026;28;20377;-68
2023/05/08 02:43:25;;;;;;;;;;;14.60;96.90;;;;;;5045632;28;19920;-68
2023/05/08 02:46:00;;;;;;;;;;;14.50;97.00;;;;;;5028064;28;19909;-68
2023/05/08 02:48:32;;;;;;;;;;;14.50;97.00;;;;;;5045847;28;19917;-68
2023/05/08 02:51:01;;;;;;;;;;;14.50;97.10;;;;;;5046174;28;20322;-68
2023/05/08 02:53:45;;;;;;;;;;;14.50;97.10;;;;;;5030937;28;19921;-68
2023/05/08 02:56:17;;;;;;;;;;;14.40;97.00;;;;;;5045746;28;19916;-68
2023/05/08 02:58:56;;;;;;;;;;;14.40;97.00;;;;;;5028017;28;19932;-68
2023/05/08 03:01:28;;;;;;;;;;;14.40;97.10;;;;;;5045988;28;19965;-68
2023/05/08 03:04:00;;;;;;;;;;;14.40;97.10;;;;;;5027583;28;19912;-68
2023/05/08 03:06:26;;;;;;;;;;;14.40;97.00;;;;;;5045860;28;19965;-68
2023/05/08 03:08:55;;;;;;;;;;;14.40;97.10;;;;;;5045975;28;20323;-68
2023/05/08 03:11:23;;;;;;;;;;;14.40;97.10;;;;;;5045600;28;19908;-68
2023/05/08 03:13:48;;;;;;;;;;;14.40;97.10;;;;;;5045310;28;20308;-68
2023/05/08 03:16:17;;;;;;;;;;;14.40;97.20;;;;;;5045679;28;19913;-68
2023/05/08 03:18:51;;;;;;;;;;;14.30;97.10;;;;;;5038843;28;19920;-68
2023/05/08 03:21:18;;;;;;;;;;;14.30;97.10;;;;;;5014293;28;19921;-68
2023/05/08 03:23:45;;;;;;;;;;;14.30;97.10;;;;;;5044763;28;20652;-68
2023/05/08 03:26:12;;;;;;;;;;;14.30;97.10;;;;;;5045297;28;19909;-68
2023/05/08 03:28:38;;;;;;;;;;;14.30;97.20;;;;;;5045404;28;19928;-68
2023/05/08 03:31:04;;;;;;;;;;;14.30;97.20;;;;;;5027251;28;19912;-68
2023/05/08 03:33:29;;;;;;;;;;;14.30;97.20;;;;;;5044870;28;19916;-68
2023/05/08 03:35:55;;;;;;;;;;;14.20;97.20;;;;;;5044947;28;19913;-68
2023/05/08 03:38:21;;;;;;;;;;;14.20;97.20;;;;;;5041098;28;19909;-68
2023/05/08 03:40:48;;;;;;;;;;;14.20;97.20;;;;;;5011740;28;19912;-68
2023/05/08 03:43:14;;;;;;;;;;;14.20;97.20;;;;;;5044904;28;19967;-68
2023/05/08 03:45:40;;;;;;;;;;;14.20;97.30;;;;;;5027041;28;19919;-68
2023/05/08 03:48:07;;;;;;;;;;;14.20;97.30;;;;;;5045118;28;19909;-68
2023/05/08 03:50:33;;;;;;;;;;;14.20;97.40;;;;;;5044538;28;19916;-68
2023/05/08 03:52:59;;;;;;;;;;;14.20;97.60;;;;;;5044786;28;20007;-68
2023/05/08 03:55:25;;;;;;;;;;;14.10;97.40;;;;;;5044760;28;19996;-68
2023/05/08 03:58:09;;;;;;;;;;;14.20;97.30;;;;;;5060549;27;19919;-68
2023/05/08 04:00:41;;;;;;;;;;;14.10;97.30;;;;;;5044583;28;19955;-68
2023/05/08 04:03:06;;;;;;;;;;;14.10;97.30;;;;;;5026810;28;20369;-68
2023/05/08 04:05:36;;;;;;;;;;;14.10;97.30;;;;;;5044708;28;19916;-68
2023/05/08 04:08:12;;;;;;;;;;;14.10;97.40;;;;;;5044999;28;19965;-68
2023/05/08 04:10:42;;;;;;;;;;;14.10;97.40;;;;;;5044569;28;19913;-68
2023/05/08 04:13:09;;;;;;;;;;;14.10;97.30;;;;;;5044519;28;19933;-68
2023/05/08 04:15:43;;;;;;;;;;;14.00;97.40;;;;;;5043894;28;20012;-68
2023/05/08 04:18:09;;;;;;;;;;;14.00;97.40;;;;;;5044412;28;19912;-68
2023/05/08 04:20:37;;;;;;;;;;;14.00;97.30;;;;;;5044235;28;20378;-68
2023/05/08 04:23:03;;;;;;;;;;;14.00;97.30;;;;;;5044471;28;19909;-68
2023/05/08 04:25:29;;;;;;;;;;;14.00;97.30;;;;;;5047765;28;19909;-68
2023/05/08 04:27:56;;;;;;;;;;;14.00;97.30;;;;;;5048242;28;19936;-68
2023/05/08 04:30:22;;;;;;;;;;;14.00;97.30;;;;;;5047659;28;20061;-68
2023/05/08 04:32:48;;;;;;;;;;;14.00;97.30;;;;;;5047633;28;20003;-68
2023/05/08 04:35:13;;;;;;;;;;;14.00;97.30;;;;;;5047836;28;19916;-68
2023/05/08 04:37:40;;;;;;;;;;;14.00;97.20;;;;;;5048251;28;20394;-68
2023/05/08 04:40:06;;;;;;;;;;;14.00;97.30;;;;;;5048023;28;20365;-68
2023/05/08 04:42:32;;;;;;;;;;;14.00;97.20;;;;;;5047206;28;19913;-68
2023/05/08 04:44:57;;;;;;;;;;;14.00;97.30;;;;;;5047669;28;19912;-68
2023/05/08 04:47:23;;;;;;;;;;;14.00;97.10;;;;;;5047718;28;19909;-68
2023/05/08 04:49:49;;;;;;;;;;;14.00;97.10;;;;;;5047514;28;19909;-68
2023/05/08 04:52:14;;;;;;;;;;;14.00;97.10;;;;;;5046620;28;20400;-68
2023/05/08 04:54:40;;;;;;;;;;;14.00;97.00;;;;;;5047237;28;19957;-68
2023/05/08 04:57:06;;;;;;;;;;;14.00;97.00;;;;;;5047461;28;19913;-68
2023/05/08 04:59:32;;;;;;;;;;;14.00;97.10;;;;;;5047629;28;19913;-68
2023/05/08 05:02:00;;;;;;;;;;;14.00;97.00;;;;;;5029345;28;19916;-68
2023/05/08 05:04:26;;;;;;;;;;;14.00;96.90;;;;;;5047005;28;19924;-68
2023/05/08 05:06:51;;;;;;;;;;;14.00;96.90;;;;;;5047366;28;19913;-68
2023/05/08 05:09:17;;;;;;;;;;;14.00;96.90;;;;;;5029455;28;19964;-68
2023/05/08 05:11:42;;;;;;;;;;;14.00;96.90;;;;;;5047200;28;19995;-68
2023/05/08 05:14:07;;;;;;;;;;;14.00;96.80;;;;;;5047084;28;19913;-68
2023/05/08 05:16:33;;;;;;;;;;;14.00;96.80;;;;;;5046660;28;19916;-68
2023/05/08 05:18:59;;;;;;;;;;;14.00;96.70;;;;;;5047604;28;19909;-68
2023/05/08 05:21:24;;;;;;;;;;;14.00;96.60;;;;;;5047503;28;20365;-68
2023/05/08 05:23:52;;;;;;;;;;;14.00;96.60;;;;;;5046508;28;21549;-68
2023/05/08 05:26:17;;;;;;;;;;;14.00;96.50;;;;;;5047443;28;20013;-68
2023/05/08 05:28:43;;;;;;;;;;;14.10;96.40;;;;;;5047416;28;20281;-68
2023/05/08 05:31:08;;;;;;;;;;;14.10;96.50;;;;;;5029249;28;19909;-68
2023/05/08 05:33:34;;;;;;;;;;;14.10;96.50;;;;;;5046909;28;20015;-68
2023/05/08 05:36:00;;;;;;;;;;;14.10;96.50;;;;;;5046671;28;20273;-68
2023/05/08 05:38:25;;;;;;;;;;;14.10;96.60;;;;;;5029503;28;20342;-68
2023/05/08 05:40:51;;;;;;;;;;;14.10;96.60;;;;;;5046864;28;19929;-68
2023/05/08 05:43:16;;;;;;;;;;;14.20;96.60;;;;;;5046867;28;20334;-68
2023/05/08 05:45:42;;;;;;;;;;;14.10;96.50;;;;;;5046675;28;20020;-68
2023/05/08 05:48:07;;;;;;;;;;;14.20;96.50;;;;;;5047106;28;20377;-68
2023/05/08 05:50:33;;;;;;;;;;;14.20;96.60;;;;;;5046563;28;19913;-68
2023/05/08 05:52:58;;;;;;;;;;;14.20;96.50;;;;;;5046819;28;20004;-68
2023/05/08 05:55:24;;;;;;;;;;;14.20;96.50;;;;;;5046600;28;19924;-68
2023/05/08 05:57:49;;;;;;;;;;;14.20;96.50;;;;;;5046967;28;19920;-68
2023/05/08 06:00:16;;;;;;;;;;;14.20;96.30;;;;;;5046656;28;20012;-68
2023/05/08 06:02:42;;;;;;;;;;;14.30;96.50;;;;;;5046530;28;19917;-68
2023/05/08 06:05:08;;;;;;;;;;;14.20;96.50;;;;;;5046424;28;19960;-68
2023/05/08 06:07:34;;;;;;;;;;;14.30;96.40;;;;;;5046613;28;19913;-68
2023/05/08 06:10:00;;;;;;;;;;;14.30;96.30;;;;;;5046321;28;20422;-68
2023/05/08 06:12:27;;;;;;;;;;;14.30;96.40;;;;;;5046381;28;19909;-68
2023/05/08 06:14:52;;;;;;;;;;;14.30;96.30;;;;;;5045959;28;19921;-68
2023/05/08 06:17:18;;;;;;;;;;;14.40;96.40;;;;;;5045760;28;19913;-68
2023/05/08 06:19:49;;;;;;;;;;;14.40;96.30;;;;;;5046337;28;19956;-68
2023/05/08 06:22:17;;;;;;;;;;;14.40;96.30;;;;;;5046362;28;20434;-68
2023/05/08 06:24:43;;;;;;;;;;;14.50;96.30;;;;;;5046352;28;19948;-68
2023/05/08 06:27:09;;;;;;;;;;;14.50;96.20;;;;;;5047772;27;19967;-68
2023/05/08 06:29:34;;;;;;;;;;;14.50;96.20;;;;;;5042208;28;19919;-68
2023/05/08 06:32:00;;;;;;;;;;;14.50;96.20;;;;;;5027842;28;20537;-68
2023/05/08 06:34:26;;;;;;;;;;;14.50;96.10;;;;;;5026214;28;19924;-68
2023/05/08 06:36:51;;;;;;;;;;;14.60;96.20;;;;;;5026496;28;19931;-68
2023/05/08 06:39:17;;;;;;;;;;;14.60;96.10;;;;;;5026535;28;19913;-68
2023/05/08 06:41:45;;;;;;;;;;;14.60;96.00;;;;;;5038027;28;19916;-68
2023/05/08 06:44:11;;;;;;;;;;;14.60;96.00;;;;;;5046034;28;20346;-68
2023/05/08 06:46:36;;;;;;;;;;;14.70;96.10;;;;;;5044949;28;19934;-68
2023/05/08 06:49:02;;;;;;;;;;;14.70;95.90;;;;;;5061439;28;19913;-68
2023/05/08 06:51:27;;;;;;;;;;;14.70;95.90;;;;;;5045923;28;19909;-68
2023/05/08 06:53:53;;;;;;;;;;;14.70;95.90;;;;;;5045780;28;19959;-68
2023/05/08 06:56:18;;;;;;;;;;;14.80;95.90;;;;;;5027935;28;19919;-68
2023/05/08 06:58:44;;;;;;;;;;;14.80;95.70;;;;;;5045836;28;19913;-68
2023/05/08 07:01:10;;;;;;;;;;;14.80;95.80;;;;;;5027602;28;19940;-68
2023/05/08 07:03:36;;;;;;;;;;;14.90;95.70;;;;;;5045656;28;19912;-68
2023/05/08 07:06:01;;;;;;;;;;;14.90;95.80;;;;;;5045520;28;19958;-68
2023/05/08 07:08:28;;;;;;;;;;;15.00;95.90;;;;;;5045783;28;19920;-68
2023/05/08 07:10:54;;;;;;;;;;;15.00;95.80;;;;;;5045712;28;19920;-68
2023/05/08 07:13:20;;;;;;;;;;;15.00;95.50;;;;;;5045244;28;19912;-68
2023/05/08 07:15:46;;;;;;;;;;;15.10;95.60;;;;;;5044999;28;19911;-68
2023/05/08 07:18:12;;;;;;;;;;;15.10;95.50;;;;;;5045298;28;19917;-68
2023/05/08 07:20:37;;;;;;;;;;;15.20;95.40;;;;;;5027397;28;19999;-68
2023/05/08 07:23:03;;;;;;;;;;;15.20;95.40;;;;;;5045454;28;19909;-68
2023/05/08 07:25:28;;;;;;;;;;;15.20;95.40;;;;;;5045825;28;20011;-69
2023/05/08 07:27:54;;;;;;;;;;;15.30;95.70;;;;;;5045839;28;19916;-68
2023/05/08 07:30:20;;;;;;;;;;;15.30;95.40;;;;;;5045074;28;19916;-68
2023/05/08 07:32:45;;;;;;;;;;;15.30;95.30;;;;;;5045250;28;19909;-68
2023/05/08 07:35:11;;;;;;;;;;;15.30;95.40;;;;;;5045213;28;20035;-68
2023/05/08 07:37:37;;;;;;;;;;;15.40;95.50;;;;;;5045417;28;19917;-68
2023/05/08 07:40:03;;;;;;;;;;;15.30;95.20;;;;;;5027466;28;19952;-68
2023/05/08 07:42:29;;;;;;;;;;;15.40;95.20;;;;;;5045089;28;19959;-68
2023/05/08 07:44:54;;;;;;;;;;;15.40;95.20;;;;;;5045073;28;19966;-68
2023/05/08 07:47:20;;;;;;;;;;;15.50;95.20;;;;;;5045239;28;19940;-68
2023/05/08 07:49:45;;;;;;;;;;;15.50;95.10;;;;;;5045075;28;19913;-68
2023/05/08 07:52:11;;;;;;;;;;;15.50;95.10;;;;;;5026735;28;19958;-69
2023/05/08 07:54:36;;;;;;;;;;;15.60;95.00;;;;;;5044975;28;19921;-68
2023/05/08 07:57:02;;;;;;;;;;;15.60;95.00;;;;;;5045225;28;19913;-68
2023/05/08 07:59:27;;;;;;;;;;;15.60;95.20;;;;;;5048234;28;19912;-68
2023/05/08 08:01:53;;;;;;;;;;;15.70;95.20;;;;;;5048441;28;20284;-68
2023/05/08 08:04:18;;;;;;;;;;;15.70;95.10;;;;;;5048427;28;19913;-69
2023/05/08 08:06:44;;;;;;;;;;;15.80;95.20;;;;;;5048308;28;20031;-68
2023/05/08 08:09:10;;;;;;;;;;;15.80;95.10;;;;;;5048244;28;19913;-68
2023/05/08 08:11:35;;;;;;;;;;;15.80;95.00;;;;;;5044609;28;20393;-68
2023/05/08 08:14:01;;;;;;;;;;;15.90;95.00;;;;;;5043474;28;19917;-69
2023/05/08 08:16:27;;;;;;;;;;;15.90;95.00;;;;;;5047702;28;19961;-69
2023/05/08 08:18:52;;;;;;;;;;;15.90;95.00;;;;;;5048121;28;19912;-68
2023/05/08 08:21:18;;;;;;;;;;;15.90;94.80;;;;;;5047928;28;19924;-68
2023/05/08 08:23:43;;;;;;;;;;;16.00;94.80;;;;;;5030122;28;19913;-69
2023/05/08 08:26:09;;;;;;;;;;;16.00;94.90;;;;;;5048105;28;20012;-69
2023/05/08 08:28:34;;;;;;;;;;;16.10;95.00;;;;;;5035515;28;19913;-68
2023/05/08 08:31:00;;;;;;;;;;;16.10;94.90;;;;;;5028119;28;19966;-68
2023/05/08 08:33:28;;;;;;;;;;;16.10;94.80;;;;;;5028203;28;19916;-69
2023/05/08 08:35:54;;;;;;;;;;;16.10;94.70;;;;;;5028077;28;20036;-68
2023/05/08 08:38:19;;;;;;;;;;;16.20;94.60;;;;;;5028544;28;19996;-69
2023/05/08 08:40:45;;;;;;;;;;;16.30;94.70;;;;;;5037112;28;20007;-69
2023/05/08 08:43:10;;;;;;;;;;;16.30;94.70;;;;;;5047669;28;20047;-69
2023/05/08 08:45:36;;;;;;;;;;;16.30;94.60;;;;;;5047807;28;20404;-69
2023/05/08 08:48:02;;;;;;;;;;;16.40;94.60;;;;;;5048078;28;19912;-68
2023/05/08 08:50:30;;;;;;;;;;;16.40;94.50;;;;;;5047607;28;20498;-69
2023/05/08 08:53:00;;;;;;;;;;;16.50;94.50;;;;;;5047842;28;19912;-68
2023/05/08 08:55:25;;;;;;;;;;;16.50;94.40;;;;;;5047742;28;19924;-68
2023/05/08 08:58:13;;;;;;;;;;;16.60;94.40;;;;;;5047976;28;19913;-69
2023/05/08 09:00:39;;;;;;;;;;;16.60;94.30;;;;;;5047419;28;19958;-68
2023/05/08 09:03:06;;;;;;;;;;;16.60;94.20;;;;;;5150246;27;20346;-69
2023/05/08 09:05:32;;;;;;;;;;;16.60;94.40;;;;;;5047321;28;20335;-69
2023/05/08 09:07:58;;;;;;;;;;;16.70;94.40;;;;;;5047850;28;19985;-68
2023/05/08 09:10:24;;;;;;;;;;;16.70;94.30;;;;;;5101183;27;20373;-69
2023/05/08 09:12:49;;;;;;;;;;;16.70;94.40;;;;;;5047409;28;19913;-69
2023/05/08 09:15:15;;;;;;;;;;;16.80;94.30;;;;;;5038932;28;19917;-69
2023/05/08 09:17:40;;;;;;;;;;;16.80;94.30;;;;;;5058207;28;19927;-69
2023/05/08 09:20:06;;;;;;;;;;;16.80;94.20;;;;;;5013216;28;19917;-69
2023/05/08 09:22:34;;;;;;;;;;;16.80;94.20;;;;;;5044420;28;19944;-69
2023/05/08 09:25:01;;;;;;;;;;;16.80;94.20;;;;;;5047444;28;19912;-69
2023/05/08 09:27:27;;;;;;;;;;;16.90;94.20;;;;;;5029483;28;20383;-69
2023/05/08 09:30:06;;;;;;;;;;;16.90;94.10;;;;;;5029407;28;20374;-69
2023/05/08 09:32:32;;;;;;;;;;;17.00;94.30;;;;;;5046841;28;20017;-69
2023/05/08 09:34:58;;;;;;;;;;;17.00;94.10;;;;;;5029154;28;19921;-69
2023/05/08 09:37:24;;;;;;;;;;;17.10;94.10;;;;;;5045350;28;19919;-69
2023/05/08 09:39:50;;;;;;;;;;;17.10;94.00;;;;;;5042405;28;20373;-69
2023/05/08 09:42:15;;;;;;;;;;;17.10;94.20;;;;;;5046933;28;19913;-69
2023/05/08 09:44:45;;;;;;;;;;;17.10;94.00;;;;;;5028946;28;19917;-69
2023/05/08 09:47:11;;;;;;;;;;;17.20;93.90;;;;;;5046974;28;19912;-69
2023/05/08 09:49:39;;;;;;;;;;;17.20;94.00;;;;;;5046938;28;19917;-69
2023/05/08 09:52:05;;;;;;;;;;;17.20;94.00;;;;;;5046800;28;19913;-69
2023/05/08 09:54:30;;;;;;;;;;;17.20;93.90;;;;;;5046823;28;19913;-69
2023/05/08 09:56:56;;;;;;;;;;;17.30;93.80;;;;;;5046971;28;19909;-69
2023/05/08 09:59:26;;;;;;;;;;;17.30;93.80;;;;;;5046834;28;19912;-69
2023/05/08 10:01:51;;;;;;;;;;;17.40;93.90;;;;;;5028509;28;20623;-69
2023/05/08 10:04:17;;;;;;;;;;;17.40;94.00;;;;;;5046655;28;19956;-69
2023/05/08 10:06:43;;;;;;;;;;;17.40;94.20;;;;;;5046638;28;19913;-69
2023/05/08 10:09:09;;;;;;;;;;;17.50;93.90;;;;;;5046444;28;19917;-69
2023/05/08 10:11:34;;;;;;;;;;;17.50;93.80;;;;;;5028831;28;19913;-69
2023/05/08 10:14:00;;;;;;;;;;;17.50;93.90;;;;;;5046253;28;19961;-69
2023/05/08 10:16:27;;;;;;;;;;;17.50;93.80;;;;;;5045816;28;19913;-68
2023/05/08 10:18:56;;;;;;;;;;;17.60;93.80;;;;;;5046467;28;19916;-69
2023/05/08 10:21:24;;;;;;;;;;;17.60;93.80;;;;;;5046361;28;19917;-69
2023/05/08 10:23:52;;;;;;;;;;;17.70;93.70;;;;;;5034302;28;19913;-69
2023/05/08 10:26:26;;;;;;;;;;;17.70;93.60;;;;;;5025397;28;19909;-69
2023/05/08 10:28:56;;;;;;;;;;;17.80;93.60;;;;;;5008955;28;19921;-69
2023/05/08 10:31:24;;;;;;;;;;;17.80;93.60;;;;;;5026433;28;19913;-69
2023/05/08 10:33:53;;;;;;;;;;;17.80;93.80;;;;;;5026113;28;19917;-69
2023/05/08 10:36:19;;;;;;;;;;;17.80;93.80;;;;;;5026645;28;20001;-69
2023/05/08 10:38:45;;;;;;;;;;;17.80;93.50;;;;;;5037871;28;19908;-69
2023/05/08 10:41:11;;;;;;;;;;;17.80;93.50;;;;;;5027718;28;19912;-69
2023/05/08 10:43:40;;;;;;;;;;;17.80;93.50;;;;;;5045152;28;19920;-69
2023/05/08 10:46:14;;;;;;;;;;;17.80;93.50;;;;;;5045246;28;19964;-69
2023/05/08 10:48:46;;;;;;;;;;;17.80;93.70;;;;;;5045521;28;19920;-69
2023/05/08 10:51:17;;;;;;;;;;;17.80;93.60;;;;;;5045122;28;19920;-69
2023/05/08 10:53:49;;;;;;;;;;;17.80;93.70;;;;;;5044971;28;19985;-69
2023/05/08 10:56:15;;;;;;;;;;;17.80;93.70;;;;;;5045296;28;20286;-69
2023/05/08 10:58:40;;;;;;;;;;;17.80;93.80;;;;;;5045224;28;19924;-69
2023/05/08 11:01:06;;;;;;;;;;;17.80;93.80;;;;;;5027079;28;19909;-69
2023/05/08 11:03:37;;;;;;;;;;;17.90;94.00;;;;;;5044934;27;19912;-69
2023/05/08 11:06:03;;;;;;;;;;;17.90;93.70;;;;;;5027193;28;20322;-69
2023/05/08 11:08:29;;;;;;;;;;;18.00;93.60;;;;;;5044988;28;19933;-69
2023/05/08 11:10:58;;;;;;;;;;;18.10;93.70;;;;;;5045227;28;19950;-69
2023/05/08 11:13:32;;;;;;;;;;;18.10;93.50;;;;;;5044924;28;19940;-69
2023/05/08 11:15:58;;;;;;;;;;;18.20;93.50;;;;;;5044469;28;20309;-69
2023/05/08 11:18:24;;;;;;;;;;;18.20;93.40;;;;;;5044607;28;19908;-69
2023/05/08 11:20:57;;;;;;;;;;;18.30;93.40;;;;;;5041061;28;20032;-69
2023/05/08 11:23:23;;;;;;;;;;;18.40;93.10;;;;;;5044687;28;19951;-69
2023/05/08 11:25:57;;;;;;;;;;;18.40;93.10;;;;;;5044510;28;20292;-69
2023/05/08 11:28:23;;;;;;;;;;;18.50;93.10;;;;;;5044301;28;19916;-69
2023/05/08 11:30:52;;;;;;;;;;;18.60;93.10;;;;;;5044970;28;19909;-69
2023/05/08 11:33:18;;;;;;;;;;;18.60;93.10;;;;;;5044071;28;19913;-69
2023/05/08 11:35:51;;;;;;;;;;;18.70;92.90;;;;;;5044707;28;20341;-69
2023/05/08 11:38:36;;;;;;;;;;;18.70;92.90;;;;;;5044786;28;20035;-69
2023/05/08 11:41:02;;;;;;;;;;;18.80;92.70;;;;;;5044721;28;19913;-69
2023/05/08 11:43:37;;;;;;;;;;;18.80;92.80;;;;;;5043969;28;19912;-69
2023/05/08 11:46:03;;;;;;;;;;;18.90;92.80;;;;;;5041533;28;19938;-69
2023/05/08 11:48:29;;;;;;;;;;;18.90;92.70;;;;;;5044086;28;19955;-69
2023/05/08 11:50:54;;;;;;;;;;;18.90;92.60;;;;;;5026429;28;19948;-69
2023/05/08 11:53:20;;;;;;;;;;;19.00;92.60;;;;;;5043911;28;20003;-69
2023/05/08 11:55:49;;;;;;;;;;;19.00;92.60;;;;;;5044607;28;19913;-69
2023/05/08 11:58:15;;;;;;;;;;;19.00;92.60;;;;;;5044332;28;20261;-69
2023/05/08 12:00:44;;;;;;;;;;;19.10;92.60;;;;;;5044163;28;19915;-69
2023/05/08 12:03:20;;;;;;;;;;;19.10;92.50;;;;;;5045035;28;19913;-69
2023/05/08 12:05:46;;;;;;;;;;;19.10;92.60;;;;;;5045142;28;19974;-69
2023/05/08 12:08:12;;;;;;;;;;;19.20;92.60;;;;;;5045036;28;19917;-69
2023/05/08 12:10:55;;;;;;;;;;;19.20;92.50;;;;;;5045147;28;19917;-69
2023/05/08 12:13:20;;;;;;;;;;;19.30;92.50;;;;;;5026883;28;19909;-69
2023/05/08 12:15:46;;;;;;;;;;;19.40;92.40;;;;;;5036297;28;19920;-69
2023/05/08 12:18:12;;;;;;;;;;;19.40;92.30;;;;;;5044522;28;19913;-69
2023/05/08 12:20:38;;;;;;;;;;;19.50;92.40;;;;;;5044039;28;20268;-69
2023/05/08 12:23:03;;;;;;;;;;;19.50;92.30;;;;;;5044755;28;19909;-69
2023/05/08 12:25:29;;;;;;;;;;;19.50;92.20;;;;;;5044812;28;19913;-69
2023/05/08 12:27:55;;;;;;;;;;;19.50;92.10;;;;;;5044962;28;19913;-69
2023/05/08 12:30:21;;;;;;;;;;;19.50;92.00;;;;;;5039290;28;19909;-69
2023/05/08 12:32:46;;;;;;;;;;;19.60;92.00;;;;;;5023460;28;20020;-69
2023/05/08 12:35:12;;;;;;;;;;;19.60;92.50;;;;;;5024830;28;19917;-69
2023/05/08 12:37:38;;;;;;;;;;;19.60;92.10;;;;;;5032012;27;20023;-69
2023/05/08 12:40:04;;;;;;;;;;;19.70;92.20;;;;;;5043245;28;19920;-69
2023/05/08 12:42:49;;;;;;;;;;;19.70;92.10;;;;;;5043515;28;19913;-69
2023/05/08 12:45:22;;;;;;;;;;;19.80;92.10;;;;;;5045814;28;19913;-69
2023/05/08 12:47:48;;;;;;;;;;;19.80;92.10;;;;;;5048204;28;19919;-69
2023/05/08 12:50:17;;;;;;;;;;;19.90;92.00;;;;;;5029920;28;20011;-69
2023/05/08 12:52:43;;;;;;;;;;;20.00;91.90;;;;;;5047699;28;19913;-69
2023/05/08 12:55:28;;;;;;;;;;;20.00;91.80;;;;;;5047799;28;19965;-69
2023/05/08 12:58:06;;;;;;;;;;;20.10;91.80;;;;;;5048115;28;20389;-69
2023/05/08 13:00:41;;;;;;;;;;;20.10;91.80;;;;;;5046444;28;19913;-69
2023/05/08 13:03:08;;;;;;;;;;;20.20;91.70;;;;;;5084795;27;19922;-69
2023/05/08 13:05:34;;;;;;;;;;;20.30;91.70;;;;;;5044050;27;19912;-69
2023/05/08 13:08:00;;;;;;;;;;;20.40;91.50;;;;;;5046516;27;19924;-69
2023/05/08 13:10:41;;;;;;;;;;;20.50;91.60;;;;;;5047432;28;20004;-69
2023/05/08 13:13:07;;;;;;;;;;;20.50;91.30;;;;;;5047243;28;19913;-69
2023/05/08 13:15:33;;;;;;;;;;;20.60;91.20;;;;;;5038935;28;19944;-69
2023/05/08 13:17:59;;;;;;;;;;;20.70;91.20;;;;;;5047252;28;19940;-69
2023/05/08 13:20:25;;;;;;;;;;;20.70;91.20;;;;;;5029435;28;19956;-69
2023/05/08 13:22:50;;;;;;;;;;;20.80;91.40;;;;;;5029681;28;19924;-69
2023/05/08 13:25:16;;;;;;;;;;;20.80;91.10;;;;;;5047640;28;19931;-69
2023/05/08 13:27:41;;;;;;;;;;;20.80;91.00;;;;;;5047603;28;19913;-69
2023/05/08 13:30:07;;;;;;;;;;;20.90;91.20;;;;;;5029675;28;20015;-69
2023/05/08 13:32:32;;;;;;;;;;;20.90;91.60;;;;;;5046965;28;20494;-69
2023/05/08 13:34:58;;;;;;;;;;;20.90;91.20;;;;;;5047493;28;20403;-69
2023/05/08 13:37:23;;;;;;;;;;;20.90;91.10;;;;;;5047173;28;19920;-69
2023/05/08 13:39:49;;;;;;;;;;;21.00;91.00;;;;;;5047221;28;20047;-69
2023/05/08 13:42:14;;;;;;;;;;;21.00;91.00;;;;;;5046597;28;20373;-70
2023/05/08 13:44:40;;;;;;;;;;;21.00;91.30;;;;;;5046818;28;20004;-69
2023/05/08 13:47:05;;;;;;;;;;;21.10;91.00;;;;;;5046528;28;19919;-69
2023/05/08 13:49:31;;;;;;;;;;;21.10;91.00;;;;;;5046961;28;19909;-69
2023/05/08 13:51:56;;;;;;;;;;;21.10;91.00;;;;;;5046718;28;19919;-70
2023/05/08 13:54:22;;;;;;;;;;;21.10;90.90;;;;;;5047024;28;20633;-70
2023/05/08 13:56:48;;;;;;;;;;;21.10;91.00;;;;;;5046819;28;19913;-69
2023/05/08 13:59:14;;;;;;;;;;;21.10;91.20;;;;;;5046867;28;19969;-69
2023/05/08 14:01:40;;;;;;;;;;;21.10;91.10;;;;;;5046550;28;19913;-69
2023/05/08 14:04:05;;;;;;;;;;;21.10;91.20;;;;;;5046486;28;19913;-69
2023/05/08 14:06:31;;;;;;;;;;;21.10;91.20;;;;;;5046879;28;20019;-70
2023/05/08 14:08:56;;;;;;;;;;;21.10;91.20;;;;;;5046560;28;20365;-70
2023/05/08 14:11:22;;;;;;;;;;;21.10;91.30;;;;;;5046895;28;19917;-69
2023/05/08 14:13:48;;;;;;;;;;;21.10;91.20;;;;;;5046418;28;19916;-69
2023/05/08 14:16:14;;;;;;;;;;;21.10;91.20;;;;;;5038153;28;19964;-69